Time;durP1;ratioP1;P1;durP2;ratioP2;P2;SDS_P1;SDS_P2;PMS_P1;PMS_P2;Temp;Humidity;BMP_temperature;BMP_pressure;BME280_temperature;BME280_humidity;BME280_pressure;Samples;Min_cycle;Max_cycle;Signal;HPM_P1;HPM_P2
2021/07/26 00:01:19;;;;;;;7.95;5.35;;;22.90;99.90;;;;;;4262585;27;20061;-74
2021/07/26 00:03:23;;;;;;;6.75;4.97;;;22.90;99.90;;;;;;4263265;27;20051;-75
2021/07/26 00:05:26;;;;;;;7.95;4.35;;;22.90;99.90;;;;;;4263197;27;20051;-75
2021/07/26 00:07:29;;;;;;;9.00;5.13;;;22.90;99.90;;;;;;4245813;27;20202;-75
2021/07/26 00:09:33;;;;;;;9.65;5.25;;;23.00;99.60;;;;;;4263808;27;20051;-74
2021/07/26 00:11:37;;;;;;;7.40;5.22;;;22.90;99.90;;;;;;4246685;27;20051;-75
2021/07/26 00:13:40;;;;;;;11.85;4.95;;;22.90;99.70;;;;;;4265243;27;20612;-75
2021/07/26 00:15:44;;;;;;;5.28;4.10;;;22.90;99.70;;;;;;4263441;27;20057;-73
2021/07/26 00:17:47;;;;;;;9.65;4.60;;;22.90;99.60;;;;;;4265773;27;20605;-75
2021/07/26 00:19:50;;;;;;;6.65;4.65;;;22.90;99.90;;;;;;4269874;27;20061;-75
2021/07/26 00:21:54;;;;;;;10.48;5.00;;;22.90;99.90;;;;;;4271658;27;20055;-76
2021/07/26 00:23:57;;;;;;;10.15;4.82;;;22.80;99.90;;;;;;4269726;27;20054;-74
2021/07/26 00:26:00;;;;;;;7.50;4.22;;;22.90;99.90;;;;;;4267467;27;20051;-75
2021/07/26 00:28:04;;;;;;;8.05;5.28;;;22.90;99.70;;;;;;4268222;27;20055;-75
2021/07/26 00:30:07;;;;;;;9.77;5.30;;;22.80;99.90;;;;;;4267385;27;20082;-74
2021/07/26 00:32:12;;;;;;;9.60;5.78;;;22.80;99.90;;;;;;4268179;27;20061;-75
2021/07/26 00:34:24;;;;;;;10.65;5.43;;;22.80;99.90;;;;;;4268760;27;20057;-74
2021/07/26 00:36:27;;;;;;;15.02;7.30;;;22.80;99.90;;;;;;4270227;27;20388;-74
2021/07/26 00:38:30;;;;;;;12.43;8.07;;;22.80;99.90;;;;;;4270075;27;20050;-75
2021/07/26 00:40:33;;;;;;;11.32;7.63;;;22.60;99.90;;;;;;4269175;27;20054;-74
2021/07/26 00:42:37;;;;;;;16.58;7.45;;;22.50;99.80;;;;;;4268578;27;20069;-74
2021/07/26 00:44:40;;;;;;;20.98;6.57;;;22.60;99.70;;;;;;4268219;27;20071;-74
2021/07/26 00:46:44;;;;;;;11.05;6.47;;;22.50;99.60;;;;;;4266131;27;20537;-75
2021/07/26 00:48:48;;;;;;;12.63;8.35;;;22.60;99.80;;;;;;4247836;27;20140;-74
2021/07/26 00:50:52;;;;;;;13.63;7.00;;;22.50;99.80;;;;;;4247855;27;20051;-75
2021/07/26 00:52:56;;;;;;;14.05;7.65;;;22.50;99.70;;;;;;4266097;27;20694;-77
2021/07/26 00:54:59;;;;;;;15.07;8.15;;;22.50;99.80;;;;;;4265640;27;20057;-75
2021/07/26 00:57:04;;;;;;;16.67;9.45;;;22.50;99.90;;;;;;4265990;27;20129;-74
2021/07/26 00:59:08;;;;;;;13.55;8.75;;;22.50;99.90;;;;;;4265808;27;20055;-73
2021/07/26 01:01:14;;;;;;;13.65;8.40;;;22.50;99.90;;;;;;4266852;27;20050;-75
2021/07/26 01:03:17;;;;;;;15.38;9.68;;;22.50;99.90;;;;;;4249684;27;20085;-74
2021/07/26 01:05:22;;;;;;;16.02;9.32;;;22.50;99.90;;;;;;4274137;27;20411;-76
2021/07/26 01:07:25;;;;;;;13.55;7.88;;;22.30;99.90;;;;;;4268322;27;20497;-74
2021/07/26 01:09:28;;;;;;;12.82;8.40;;;22.40;99.90;;;;;;4265435;27;20054;-74
2021/07/26 01:11:31;;;;;;;13.63;9.18;;;22.40;99.90;;;;;;4265519;27;20392;-75
2021/07/26 01:13:35;;;;;;;11.60;8.70;;;22.40;99.90;;;;;;4265865;27;20059;-74
2021/07/26 01:15:38;;;;;;;11.98;9.55;;;22.40;99.90;;;;;;4265233;27;20127;-73
2021/07/26 01:18:20;;;;;;;11.70;8.50;;;22.40;99.90;;;;;;4265340;27;20054;-74
2021/07/26 01:20:25;;;;;;;20.25;10.50;;;22.40;99.90;;;;;;4261152;27;20047;-74
2021/07/26 01:22:28;;;;;;;14.73;10.30;;;22.40;99.90;;;;;;4268041;27;20055;-75
2021/07/26 01:24:31;;;;;;;13.70;10.20;;;22.40;99.90;;;;;;4267737;27;20061;-75
2021/07/26 01:26:34;;;;;;;14.80;10.55;;;22.40;99.90;;;;;;4266797;27;20380;-75
2021/07/26 01:28:40;;;;;;;14.45;10.15;;;22.40;99.90;;;;;;4264326;27;20050;-74
2021/07/26 01:30:44;;;;;;;15.07;10.93;;;22.20;99.90;;;;;;4265931;27;20055;-74
2021/07/26 01:32:47;;;;;;;15.73;12.43;;;22.30;99.90;;;;;;4266551;27;20402;-74
2021/07/26 01:34:51;;;;;;;17.27;11.57;;;22.20;99.90;;;;;;4265579;27;20051;-74
2021/07/26 01:36:56;;;;;;;15.98;11.40;;;22.00;99.90;;;;;;4265277;27;20050;-74
2021/07/26 01:38:59;;;;;;;18.10;11.32;;;22.00;99.90;;;;;;4265576;27;20131;-75
2021/07/26 01:41:07;;;;;;;13.65;10.68;;;22.00;99.90;;;;;;4265052;27;20055;-76
2021/07/26 01:43:10;;;;;;;16.88;10.45;;;22.10;99.90;;;;;;4264708;27;20138;-75
2021/07/26 01:45:14;;;;;;;17.83;10.45;;;22.20;99.90;;;;;;4264563;27;20065;-74
2021/07/26 01:47:17;;;;;;;13.23;9.50;;;22.00;99.80;;;;;;4264842;27;20055;-75
2021/07/26 01:49:45;;;;;;;14.07;8.10;;;22.00;99.90;;;;;;4264111;27;20066;-74
2021/07/26 01:51:49;;;;;;;13.35;8.93;;;22.00;99.80;;;;;;4264710;27;20055;-75
2021/07/26 01:53:54;;;;;;;11.80;9.20;;;22.00;99.90;;;;;;4264390;27;20042;-76
2021/07/26 01:55:58;;;;;;;14.48;9.25;;;21.90;99.90;;;;;;4264525;27;20050;-75
2021/07/26 01:58:02;;;;;;;14.93;10.07;;;21.90;99.90;;;;;;4264373;27;20074;-74
2021/07/26 02:00:07;;;;;;;16.38;9.45;;;21.80;99.90;;;;;;4246831;27;20513;-74
2021/07/26 02:02:10;;;;;;;14.45;10.88;;;21.90;99.60;;;;;;4264729;27;20069;-74
2021/07/26 02:04:14;;;;;;;13.30;10.13;;;21.90;99.80;;;;;;4264493;27;20542;-74
2021/07/26 02:06:17;;;;;;;17.60;9.95;;;21.70;99.90;;;;;;4264491;27;20057;-75
2021/07/26 02:08:20;;;;;;;13.73;10.18;;;21.70;99.80;;;;;;4264286;27;20047;-74
2021/07/26 02:10:25;;;;;;;18.58;9.82;;;21.80;99.90;;;;;;4264584;27;20050;-74
2021/07/26 02:12:28;;;;;;;16.17;10.20;;;21.70;99.90;;;;;;4264523;27;20052;-74
2021/07/26 02:14:31;;;;;;;15.15;10.18;;;21.70;99.90;;;;;;4264452;27;20139;-76
2021/07/26 02:16:34;;;;;;;15.95;10.13;;;21.60;99.90;;;;;;4265580;27;20049;-75
2021/07/26 02:18:37;;;;;;;13.93;9.50;;;21.60;99.90;;;;;;4264811;27;20408;-75
2021/07/26 02:20:40;;;;;;;15.30;10.00;;;21.60;99.90;;;;;;4264328;27;20108;-76
2021/07/26 02:22:44;;;;;;;15.13;10.07;;;21.70;99.90;;;;;;4264585;27;20057;-76
2021/07/26 02:24:47;;;;;;;16.73;10.32;;;21.70;99.90;;;;;;4264052;27;20058;-76
2021/07/26 02:26:51;;;;;;;17.95;10.65;;;21.70;99.80;;;;;;4249305;27;20061;-76
2021/07/26 02:28:54;;;;;;;20.65;11.27;;;21.70;99.80;;;;;;4266993;27;20509;-75
2021/07/26 02:30:57;;;;;;;17.70;10.43;;;21.70;99.90;;;;;;4268741;27;20054;-76
2021/07/26 02:33:00;;;;;;;16.35;10.82;;;21.70;99.90;;;;;;4269598;27;20054;-76
2021/07/26 02:35:04;;;;;;;14.43;9.95;;;21.60;99.90;;;;;;4268791;27;20077;-75
2021/07/26 02:37:08;;;;;;;15.77;10.95;;;21.60;99.90;;;;;;4265750;27;20051;-75
2021/07/26 02:39:11;;;;;;;24.48;10.35;;;21.60;99.90;;;;;;4264889;27;20061;-76
2021/07/26 02:41:15;;;;;;;20.38;10.57;;;21.50;99.90;;;;;;4263685;27;20061;-75
2021/07/26 02:43:19;;;;;;;12.98;9.85;;;21.50;99.90;;;;;;4263494;27;20436;-75
2021/07/26 02:45:23;;;;;;;17.92;10.20;;;21.50;99.90;;;;;;4263512;27;20058;-75
2021/07/26 02:47:26;;;;;;;16.02;10.40;;;21.40;99.90;;;;;;4263524;27;20632;-75
2021/07/26 02:49:29;;;;;;;14.65;10.25;;;21.40;99.90;;;;;;4263556;27;20056;-75
2021/07/26 02:51:32;;;;;;;14.60;9.70;;;21.50;99.90;;;;;;4263582;27;20057;-76
2021/07/26 02:53:35;;;;;;;14.85;8.77;;;21.60;99.90;;;;;;4244332;27;20631;-74
2021/07/26 02:55:39;;;;;;;15.57;10.48;;;21.60;99.80;;;;;;4245254;27;20453;-73
2021/07/26 02:57:42;;;;;;;13.07;9.68;;;21.50;99.90;;;;;;4245246;27;20058;-77
2021/07/26 02:59:47;;;;;;;15.40;10.27;;;21.60;99.90;;;;;;4263157;27;20090;-75
2021/07/26 03:01:51;;;;;;;17.75;10.73;;;21.60;99.90;;;;;;4262858;27;20046;-75
2021/07/26 03:03:54;;;;;;;15.98;9.73;;;21.50;99.90;;;;;;4263207;27;20051;-74
2021/07/26 03:05:57;;;;;;;16.58;9.63;;;21.50;99.90;;;;;;4262790;27;20051;-74
2021/07/26 03:08:00;;;;;;;14.05;9.23;;;21.50;99.90;;;;;;4263053;27;20050;-75
2021/07/26 03:10:04;;;;;;;16.60;10.60;;;21.50;99.90;;;;;;4263277;27;20059;-75
2021/07/26 03:12:08;;;;;;;14.30;10.00;;;21.40;99.90;;;;;;4263458;27;20053;-74
2021/07/26 03:14:11;;;;;;;17.52;10.27;;;21.40;99.90;;;;;;4271877;27;20047;-77
2021/07/26 03:16:15;;;;;;;13.82;10.52;;;21.40;99.90;;;;;;4267006;27;20372;-75
2021/07/26 03:18:18;;;;;;;15.40;10.40;;;21.40;99.90;;;;;;4263575;27;20054;-73
2021/07/26 03:20:21;;;;;;;17.08;9.73;;;21.40;99.90;;;;;;4262889;27;20065;-75
2021/07/26 03:22:58;;;;;;;17.73;10.00;;;21.40;99.90;;;;;;4262953;27;20537;-74
2021/07/26 03:25:02;;;;;;;12.95;9.80;;;21.50;99.90;;;;;;4262540;27;20077;-74
2021/07/26 03:27:05;;;;;;;15.15;9.63;;;21.50;99.90;;;;;;4263328;27;20060;-77
2021/07/26 03:29:08;;;;;;;18.80;10.88;;;21.50;99.80;;;;;;4264425;27;20055;-73
2021/07/26 03:31:11;;;;;;;17.05;12.05;;;21.50;99.90;;;;;;4265999;27;20115;-75
2021/07/26 03:33:16;;;;;;;17.40;11.38;;;21.60;99.90;;;;;;4267260;27;20055;-74
2021/07/26 03:35:20;;;;;;;17.83;12.65;;;21.60;99.90;;;;;;4271171;27;20448;-74
2021/07/26 03:37:23;;;;;;;18.42;12.57;;;21.60;99.90;;;;;;4271274;27;20158;-75
2021/07/26 03:39:26;;;;;;;19.63;11.00;;;21.60;99.90;;;;;;4268506;27;20616;-75
2021/07/26 03:41:29;;;;;;;18.38;13.20;;;21.70;99.90;;;;;;4263160;27;20059;-76
2021/07/26 03:43:32;;;;;;;18.33;12.48;;;21.60;99.90;;;;;;4262551;27;20133;-75
2021/07/26 03:45:35;;;;;;;18.98;12.40;;;21.60;99.90;;;;;;4244570;27;20059;-75
2021/07/26 03:47:38;;;;;;;20.45;13.13;;;21.60;99.90;;;;;;4262938;27;20061;-75
2021/07/26 03:49:43;;;;;;;17.83;12.05;;;21.70;99.90;;;;;;4262760;27;20065;-75
2021/07/26 03:51:46;;;;;;;18.90;12.77;;;21.60;99.90;;;;;;4263504;27;20050;-74
2021/07/26 03:53:50;;;;;;;19.08;11.60;;;21.50;99.90;;;;;;4265014;27;20047;-73
2021/07/26 03:55:53;;;;;;;21.27;12.25;;;21.50;99.90;;;;;;4266073;27;20137;-74
2021/07/26 03:58:00;;;;;;;16.83;12.13;;;21.50;99.90;;;;;;4265997;27;20047;-76
2021/07/26 04:00:04;;;;;;;21.30;12.85;;;21.50;99.90;;;;;;4268522;27;20142;-74
2021/07/26 04:02:07;;;;;;;15.63;12.23;;;21.50;99.90;;;;;;4270241;27;20061;-76
2021/07/26 04:04:10;;;;;;;18.90;11.07;;;21.60;99.90;;;;;;4267737;27;20467;-74
2021/07/26 04:06:16;;;;;;;19.05;11.63;;;21.60;99.90;;;;;;4266695;27;20097;-73
2021/07/26 04:08:24;;;;;;;18.02;11.40;;;21.60;99.90;;;;;;4266776;27;20057;-73
2021/07/26 04:10:27;;;;;;;21.98;12.40;;;21.60;99.90;;;;;;4266972;27;20073;-74
2021/07/26 04:12:33;;;;;;;15.82;10.85;;;21.60;99.90;;;;;;4266889;27;20050;-75
2021/07/26 04:14:39;;;;;;;16.92;10.65;;;21.70;99.90;;;;;;4266300;27;20061;-73
2021/07/26 04:16:42;;;;;;;19.42;12.18;;;21.60;99.90;;;;;;4265839;27;20524;-74
2021/07/26 04:18:49;;;;;;;16.98;11.48;;;21.50;99.90;;;;;;4266448;27;20058;-75
2021/07/26 04:20:52;;;;;;;18.63;11.10;;;21.40;99.90;;;;;;4266648;27;20047;-74
2021/07/26 04:22:57;;;;;;;17.33;11.48;;;21.40;99.90;;;;;;4266290;27;20055;-74
2021/07/26 04:25:00;;;;;;;19.60;11.77;;;21.40;99.90;;;;;;4266173;27;20049;-75
2021/07/26 04:27:05;;;;;;;17.15;11.68;;;21.50;99.90;;;;;;4247919;27;20055;-75
2021/07/26 04:29:10;;;;;;;16.98;10.77;;;21.60;99.90;;;;;;4266783;27;20507;-75
2021/07/26 04:31:13;;;;;;;16.42;11.05;;;21.60;99.90;;;;;;4266802;27;20406;-74
2021/07/26 04:33:16;;;;;;;15.82;10.80;;;21.70;99.90;;;;;;4266650;27;20059;-74
2021/07/26 04:35:19;;;;;;;18.23;10.98;;;21.70;99.90;;;;;;4266577;27;20050;-74
2021/07/26 04:37:22;;;;;;;17.45;10.70;;;21.70;99.90;;;;;;4267068;27;20110;-75
2021/07/26 04:39:28;;;;;;;13.38;10.02;;;21.70;99.90;;;;;;4267593;27;20495;-75
2021/07/26 04:41:33;;;;;;;14.05;10.65;;;21.70;99.90;;;;;;4266374;27;20155;-75
2021/07/26 04:43:36;;;;;;;17.60;11.18;;;21.50;99.90;;;;;;4265464;27;20050;-75
2021/07/26 04:45:39;;;;;;;17.10;10.18;;;21.50;99.90;;;;;;4265404;27;20513;-75
2021/07/26 04:47:42;;;;;;;12.98;9.82;;;21.50;99.90;;;;;;4265515;27;20062;-76
2021/07/26 04:49:45;;;;;;;17.63;9.57;;;21.40;99.90;;;;;;4265756;27;20060;-75
2021/07/26 04:51:48;;;;;;;15.40;9.73;;;21.30;99.90;;;;;;4266404;27;20058;-74
2021/07/26 04:53:51;;;;;;;15.07;9.32;;;21.30;99.90;;;;;;4265311;27;20057;-75
2021/07/26 04:55:57;;;;;;;14.35;9.48;;;21.20;99.90;;;;;;4265126;27;20046;-74
2021/07/26 04:58:00;;;;;;;14.23;8.73;;;21.20;99.90;;;;;;4265196;27;20151;-74
2021/07/26 05:00:04;;;;;;;14.32;9.60;;;21.30;99.90;;;;;;4265485;27;20062;-74
2021/07/26 05:02:07;;;;;;;15.10;9.57;;;21.30;99.90;;;;;;4265469;27;20435;-74
2021/07/26 05:04:10;;;;;;;12.25;8.63;;;21.30;99.90;;;;;;4264353;27;20055;-75
2021/07/26 05:06:13;;;;;;;12.02;8.70;;;21.30;99.90;;;;;;4265631;27;20049;-74
2021/07/26 05:08:16;;;;;;;14.98;8.25;;;21.50;99.90;;;;;;4265110;27;20101;-75
2021/07/26 05:10:19;;;;;;;17.08;8.82;;;21.60;99.90;;;;;;4264728;27;20061;-75
2021/07/26 05:12:23;;;;;;;10.05;8.68;;;21.70;99.90;;;;;;4265102;27;20416;-74
2021/07/26 05:14:27;;;;;;;;;;;21.70;99.90;;;;;;4265508;27;20055;-75
2021/07/26 05:16:30;;;;;;;14.68;9.25;;;21.60;99.90;;;;;;4267059;27;19919;-76
2021/07/26 05:18:33;;;;;;;14.25;8.70;;;21.70;99.90;;;;;;4266704;27;20065;-76
2021/07/26 05:20:36;;;;;;;16.00;8.98;;;21.70;99.90;;;;;;4266191;27;20046;-75
2021/07/26 05:22:39;;;;;;;14.20;8.70;;;21.80;99.90;;;;;;4266583;27;20054;-76
2021/07/26 05:24:42;;;;;;;16.30;9.32;;;21.80;99.90;;;;;;4270258;27;20047;-76
2021/07/26 05:26:45;;;;;;;13.85;9.30;;;21.80;99.90;;;;;;4266066;27;20076;-76
2021/07/26 05:28:50;;;;;;;13.02;9.30;;;21.90;99.90;;;;;;4266500;27;20053;-75
2021/07/26 05:30:53;;;;;;;13.77;8.00;;;21.80;99.90;;;;;;4267108;27;20415;-75
2021/07/26 05:32:56;;;;;;;10.13;8.30;;;21.70;99.90;;;;;;4265578;27;20057;-75
2021/07/26 05:34:59;;;;;;;15.27;8.43;;;21.70;99.90;;;;;;4265048;27;20061;-74
2021/07/26 05:37:02;;;;;;;14.55;8.40;;;21.60;99.90;;;;;;4265758;27;20061;-76
2021/07/26 05:39:05;;;;;;;14.20;8.75;;;21.70;99.90;;;;;;4265604;27;20046;-73
2021/07/26 05:41:08;;;;;;;11.75;8.05;;;21.60;99.90;;;;;;4265295;27;20051;-75
2021/07/26 05:43:11;;;;;;;12.40;8.15;;;21.60;99.90;;;;;;4265590;27;20110;-74
2021/07/26 05:45:16;;;;;;;16.20;8.32;;;21.70;99.90;;;;;;4265622;27;20058;-76
2021/07/26 05:47:19;;;;;;;9.70;7.65;;;21.60;99.90;;;;;;4268610;27;20141;-76
2021/07/26 05:49:23;;;;;;;10.10;8.35;;;21.60;99.90;;;;;;4269331;27;20057;-76
2021/07/26 05:51:26;;;;;;;11.60;7.95;;;21.50;99.90;;;;;;4269515;27;20062;-75
2021/07/26 05:53:29;;;;;;;14.90;8.02;;;21.50;99.90;;;;;;4268427;27;20049;-76
2021/07/26 05:55:32;;;;;;;19.70;8.13;;;21.60;99.90;;;;;;4267952;27;20051;-75
2021/07/26 05:57:38;;;;;;;18.33;9.90;;;21.70;99.90;;;;;;4266025;27;20047;-75
2021/07/26 05:59:41;;;;;;;13.93;8.18;;;21.70;99.90;;;;;;4264270;27;20403;-74
2021/07/26 06:01:48;;;;;;;14.65;8.23;;;21.70;99.90;;;;;;4264336;27;20123;-75
2021/07/26 06:03:51;;;;;;;15.30;8.65;;;21.70;99.90;;;;;;4264195;27;20051;-73
2021/07/26 06:05:54;;;;;;;14.75;7.57;;;21.70;99.90;;;;;;4264012;27;20453;-75
2021/07/26 06:07:57;;;;;;;12.40;7.57;;;21.90;99.90;;;;;;4246145;27;20059;-74
2021/07/26 06:10:00;;;;;;;17.27;9.00;;;21.90;99.90;;;;;;4266758;27;20115;-75
2021/07/26 06:12:04;;;;;;;15.65;7.78;;;21.90;99.90;;;;;;4266243;27;20055;-75
2021/07/26 06:14:08;;;;;;;17.92;9.13;;;21.80;99.90;;;;;;4266062;27;20466;-74
2021/07/26 06:16:11;;;;;;;15.45;8.00;;;21.80;99.90;;;;;;4245516;27;20055;-75
2021/07/26 06:18:16;;;;;;;17.48;8.43;;;22.00;99.90;;;;;;4263661;27;20200;-74
2021/07/26 06:20:19;;;;;;;12.50;8.20;;;22.00;99.90;;;;;;4263821;27;20050;-75
2021/07/26 06:22:22;;;;;;;15.88;8.45;;;22.00;99.90;;;;;;4264185;27;20517;-74
2021/07/26 06:24:25;;;;;;;13.45;8.23;;;21.80;99.90;;;;;;4264191;27;20050;-75
2021/07/26 06:26:28;;;;;;;14.73;7.68;;;21.60;99.90;;;;;;4264001;27;20055;-75
2021/07/26 06:28:32;;;;;;;19.80;8.55;;;21.60;99.90;;;;;;4263767;27;20499;-75
2021/07/26 06:30:35;;;;;;;12.93;8.02;;;21.50;99.90;;;;;;4263750;27;20050;-74
2021/07/26 06:32:38;;;;;;;11.52;8.40;;;21.40;99.90;;;;;;4263573;27;20501;-74
2021/07/26 06:34:43;;;;;;;13.75;8.73;;;21.40;99.90;;;;;;4263158;27;20055;-74
2021/07/26 06:36:46;;;;;;;15.55;8.57;;;21.40;99.90;;;;;;4263466;27;20070;-74
2021/07/26 06:38:49;;;;;;;13.60;8.25;;;21.40;99.90;;;;;;4263186;27;20050;-74
2021/07/26 06:40:52;;;;;;;16.95;8.32;;;21.40;99.90;;;;;;4263567;27;20433;-74
2021/07/26 06:42:55;;;;;;;14.75;9.07;;;21.30;99.90;;;;;;4263042;27;20057;-74
2021/07/26 06:44:58;;;;;;;22.60;9.60;;;21.40;99.90;;;;;;4245251;27;20059;-75
2021/07/26 06:47:01;;;;;;;20.40;9.18;;;21.40;99.90;;;;;;4263828;27;20050;-77
2021/07/26 06:49:04;;;;;;;16.98;8.82;;;21.30;99.90;;;;;;4265379;27;20059;-76
2021/07/26 06:51:08;;;;;;;23.98;9.68;;;21.30;99.90;;;;;;4263869;27;20077;-75
2021/07/26 06:53:11;;;;;;;14.70;8.60;;;21.50;99.90;;;;;;4264241;27;20053;-74
2021/07/26 06:55:14;;;;;;;16.77;8.68;;;21.40;99.90;;;;;;4262339;27;20063;-73
2021/07/26 06:57:17;;;;;;;17.30;8.48;;;21.40;99.90;;;;;;4263164;27;20057;-76
2021/07/26 06:59:20;;;;;;;14.77;7.80;;;21.40;99.90;;;;;;4263269;27;20483;-74
2021/07/26 07:01:23;;;;;;;11.23;7.80;;;21.50;99.90;;;;;;4263423;27;20073;-75
2021/07/26 07:03:27;;;;;;;11.90;7.38;;;21.60;99.90;;;;;;4263752;27;20142;-73
2021/07/26 07:05:30;;;;;;;12.05;7.13;;;21.60;99.90;;;;;;4263495;27;20055;-75
2021/07/26 07:07:34;;;;;;;17.42;7.93;;;21.60;99.90;;;;;;4263009;27;20051;-76
2021/07/26 07:09:37;;;;;;;17.42;8.13;;;21.50;99.90;;;;;;4263309;27;20061;-75
2021/07/26 07:11:40;;;;;;;26.67;13.23;;;21.80;99.90;;;;;;4263448;27;20091;-76
2021/07/26 07:13:46;;;;;;;25.48;14.95;;;21.80;99.90;;;;;;4263123;27;20051;-75
2021/07/26 07:15:49;;;;;;;22.60;12.23;;;21.70;99.90;;;;;;4245324;27;20519;-76
2021/07/26 07:17:52;;;;;;;16.98;10.45;;;21.70;99.90;;;;;;4263498;27;20047;-74
2021/07/26 07:19:55;;;;;;;16.17;9.73;;;21.70;99.90;;;;;;4264480;27;20057;-74
2021/07/26 07:21:58;;;;;;;19.75;9.80;;;21.80;99.90;;;;;;4265711;27;20050;-74
2021/07/26 07:24:03;;;;;;;21.58;9.68;;;21.90;99.90;;;;;;4265584;27;20054;-75
2021/07/26 07:26:06;;;;;;;21.88;8.43;;;21.90;99.90;;;;;;4264571;27;20055;-75
2021/07/26 07:28:09;;;;;;;15.38;8.23;;;21.70;99.90;;;;;;4262729;27;20498;-76
2021/07/26 07:30:13;;;;;;;13.20;7.40;;;21.60;99.90;;;;;;4263666;27;20134;-74
2021/07/26 07:32:16;;;;;;;10.95;7.95;;;21.70;99.90;;;;;;4262901;27;20122;-74
2021/07/26 07:34:19;;;;;;;14.55;8.27;;;21.70;99.90;;;;;;4263129;27;20065;-75
2021/07/26 07:36:23;;;;;;;16.75;9.60;;;21.60;99.90;;;;;;4263662;27;20065;-75
2021/07/26 07:38:27;;;;;;;19.67;10.68;;;21.60;99.90;;;;;;4267973;27;20042;-74
2021/07/26 07:40:32;;;;;;;14.75;9.63;;;21.60;99.90;;;;;;4271697;27;20073;-81
2021/07/26 07:42:36;;;;;;;16.45;10.88;;;21.70;99.90;;;;;;4262973;27;20058;-75
2021/07/26 07:44:39;;;;;;;17.60;10.32;;;21.50;99.90;;;;;;4262729;27;20050;-75
2021/07/26 07:46:42;;;;;;;18.20;10.95;;;21.60;99.90;;;;;;4262961;27;20427;-74
2021/07/26 07:48:45;;;;;;;16.38;11.15;;;21.50;99.90;;;;;;4263492;27;20074;-75
2021/07/26 07:50:49;;;;;;;16.17;11.75;;;21.50;99.90;;;;;;4245356;27;20069;-75
2021/07/26 07:52:53;;;;;;;21.90;11.90;;;21.60;99.90;;;;;;4263458;27;20054;-74
2021/07/26 07:54:56;;;;;;;23.20;12.02;;;21.70;99.90;;;;;;4262850;27;20055;-75
2021/07/26 07:57:00;;;;;;;24.45;12.63;;;21.70;99.90;;;;;;4263673;27;20046;-75
2021/07/26 07:59:06;;;;;;;20.38;12.88;;;21.80;99.90;;;;;;4263659;27;20053;-74
2021/07/26 08:01:09;;;;;;;18.33;12.45;;;21.80;99.90;;;;;;4264377;27;20504;-74
2021/07/26 08:03:12;;;;;;;18.75;12.82;;;21.90;99.90;;;;;;4246639;27;20047;-75
2021/07/26 08:05:17;;;;;;;19.75;12.95;;;22.00;99.90;;;;;;4265218;27;20126;-75
2021/07/26 08:07:20;;;;;;;23.70;13.73;;;22.10;99.90;;;;;;4265030;27;20047;-74
2021/07/26 08:09:23;;;;;;;21.95;12.15;;;22.00;99.90;;;;;;4264652;27;20055;-75
2021/07/26 08:11:27;;;;;;;22.15;13.13;;;22.20;99.90;;;;;;4267476;27;20051;-74
2021/07/26 08:13:35;;;;;;;20.58;12.88;;;22.10;99.90;;;;;;4268129;27;20493;-76
2021/07/26 08:15:38;;;;;;;25.05;13.23;;;22.10;99.90;;;;;;4268052;27;20600;-74
2021/07/26 08:17:43;;;;;;;20.27;13.75;;;22.30;99.90;;;;;;4268466;27;20051;-76
2021/07/26 08:19:47;;;;;;;18.27;12.85;;;22.30;99.90;;;;;;4270216;27;20051;-74
2021/07/26 08:21:50;;;;;;;26.60;14.77;;;22.40;99.90;;;;;;4266015;27;20475;-73
2021/07/26 08:23:53;;;;;;;28.20;13.70;;;22.50;99.90;;;;;;4264263;27;20578;-75
2021/07/26 08:25:56;;;;;;;23.10;13.48;;;22.70;99.90;;;;;;4264541;27;20139;-75
2021/07/26 08:27:59;;;;;;;27.35;14.00;;;22.80;99.90;;;;;;4263370;27;20105;-74
2021/07/26 08:30:05;;;;;;;28.25;14.50;;;22.80;99.90;;;;;;4245119;27;20495;-73
2021/07/26 08:32:08;;;;;;;23.10;12.68;;;22.90;99.90;;;;;;4262815;27;20059;-75
2021/07/26 08:34:11;;;;;;;21.77;12.98;;;22.90;99.90;;;;;;4263324;27;20147;-74
2021/07/26 08:36:14;;;;;;;21.02;11.95;;;22.70;99.90;;;;;;4263450;27;20048;-76
2021/07/26 08:38:17;;;;;;;20.08;11.75;;;22.60;99.90;;;;;;4264580;27;20053;-74
2021/07/26 08:40:21;;;;;;;21.88;12.50;;;22.50;99.90;;;;;;4265558;27;20125;-75
2021/07/26 08:42:24;;;;;;;19.53;10.70;;;22.50;99.90;;;;;;4266988;27;20061;-75
2021/07/26 08:44:28;;;;;;;14.88;9.55;;;22.60;99.90;;;;;;4267784;27;20475;-74
2021/07/26 08:46:32;;;;;;;15.38;9.55;;;22.70;99.90;;;;;;4267589;27;20065;-73
2021/07/26 08:48:36;;;;;;;;;;;22.80;99.90;;;;;;4266887;27;20068;-81
2021/07/26 08:50:39;;;;;;;20.45;10.32;;;22.50;99.90;;;;;;4265865;27;20371;-74
2021/07/26 08:52:43;;;;;;;18.10;11.15;;;22.70;99.90;;;;;;4267014;27;20061;-76
2021/07/26 08:54:49;;;;;;;13.93;10.38;;;22.90;99.90;;;;;;4266100;27;20135;-75
2021/07/26 08:56:52;;;;;;;15.25;8.88;;;23.20;99.90;;;;;;4268561;27;20138;-76
2021/07/26 08:58:55;;;;;;;15.68;9.38;;;23.30;99.90;;;;;;4248863;27;20414;-76
2021/07/26 09:00:59;;;;;;;16.08;9.38;;;23.10;99.90;;;;;;4268106;27;20058;-76
2021/07/26 09:03:04;;;;;;;18.80;9.65;;;23.10;99.90;;;;;;4266328;27;20138;-76
2021/07/26 09:05:08;;;;;;;12.50;8.90;;;23.30;99.90;;;;;;4265872;27;20074;-76
2021/07/26 09:07:11;;;;;;;12.48;9.70;;;23.60;99.90;;;;;;4266188;27;20057;-76
2021/07/26 09:09:15;;;;;;;11.73;9.25;;;23.70;99.90;;;;;;4265359;27;20471;-74
2021/07/26 09:11:18;;;;;;;14.43;9.15;;;23.70;99.90;;;;;;4265018;27;20054;-76
2021/07/26 09:13:32;;;;;;;15.23;9.43;;;23.70;99.90;;;;;;4265293;27;20398;-73
2021/07/26 09:15:37;;;;;;;19.85;9.13;;;23.30;99.90;;;;;;4265043;27;20058;-75
2021/07/26 09:17:43;;;;;;;17.38;9.25;;;23.20;99.90;;;;;;4265462;27;20138;-75
2021/07/26 09:19:58;;;;;;;11.57;8.27;;;23.10;99.90;;;;;;4265269;27;20422;-75
2021/07/26 09:22:01;;;;;;;17.88;9.25;;;23.20;99.90;;;;;;4266467;27;20055;-76
2021/07/26 09:24:05;;;;;;;15.93;9.55;;;23.30;99.90;;;;;;4265240;27;20060;-74
2021/07/26 09:26:26;;;;;;;18.70;10.18;;;23.30;99.90;;;;;;4264998;27;20061;-75
2021/07/26 09:28:32;;;;;;;16.33;11.02;;;23.10;99.90;;;;;;4246417;27;20134;-74
2021/07/26 09:30:40;;;;;;;19.13;11.27;;;22.90;99.90;;;;;;4264783;27;20050;-73
2021/07/26 09:32:43;;;;;;;18.02;11.70;;;22.90;99.90;;;;;;4264940;27;20061;-73
2021/07/26 09:34:48;;;;;;;16.48;11.20;;;23.00;99.90;;;;;;4264862;27;20053;-75
2021/07/26 09:36:53;;;;;;;;;;;23.10;99.90;;;;;;4265611;27;20541;-73
2021/07/26 09:38:56;;;;;;;12.65;10.85;;;23.00;99.90;;;;;;4264388;27;19925;-75
2021/07/26 09:41:01;;;;;;;18.95;11.98;;;23.10;99.90;;;;;;4264735;27;20406;-74
2021/07/26 09:43:16;;;;;;;19.08;12.10;;;23.00;99.90;;;;;;4264232;27;20055;-74
2021/07/26 09:45:20;;;;;;;;;;;23.00;99.90;;;;;;4265267;27;20623;-75
2021/07/26 09:47:23;;;;;;;17.23;11.50;;;23.00;99.90;;;;;;4264438;27;19919;-76
2021/07/26 09:49:26;;;;;;;13.00;10.73;;;23.00;99.90;;;;;;4249454;27;20057;-77
2021/07/26 09:51:29;;;;;;;15.15;11.50;;;23.00;99.90;;;;;;4271930;27;20057;-73
2021/07/26 09:53:48;;;;;;;15.27;11.82;;;23.20;99.90;;;;;;4265707;27;20058;-75
2021/07/26 09:55:54;;;;;;;16.55;11.10;;;23.40;99.90;;;;;;4266196;27;20057;-76
2021/07/26 09:58:01;;;;;;;16.23;11.32;;;23.70;99.90;;;;;;4269951;27;20046;-74
2021/07/26 10:00:06;;;;;;;15.10;10.85;;;23.80;99.90;;;;;;4267560;27;20054;-74
2021/07/26 10:02:13;;;;;;;13.75;10.55;;;24.00;99.90;;;;;;4269071;27;20558;-75
2021/07/26 10:04:16;;;;;;;17.83;12.48;;;24.10;99.90;;;;;;4267818;27;20141;-75
2021/07/26 10:06:19;;;;;;;16.48;12.40;;;24.10;99.90;;;;;;4246234;27;20055;-75
2021/07/26 10:08:23;;;;;;;16.52;12.23;;;24.00;99.90;;;;;;4246024;27;20055;-76
2021/07/26 10:10:28;;;;;;;17.83;13.75;;;23.80;99.90;;;;;;4265370;27;20047;-74
2021/07/26 10:12:31;;;;;;;15.60;12.90;;;23.30;99.90;;;;;;4266521;27;20047;-74
2021/07/26 10:14:35;;;;;;;15.80;12.70;;;23.20;99.90;;;;;;4266253;27;20064;-75
2021/07/26 10:16:40;;;;;;;18.83;13.07;;;23.30;99.90;;;;;;4265601;27;20495;-74
2021/07/26 10:18:43;;;;;;;16.43;12.60;;;22.90;99.90;;;;;;4265958;27;20061;-74
2021/07/26 10:20:56;;;;;;;16.67;13.23;;;23.00;99.90;;;;;;4266173;27;21010;-74
2021/07/26 10:23:05;;;;;;;17.08;12.82;;;22.90;99.90;;;;;;4264275;27;20050;-74
2021/07/26 10:25:15;;;;;;;14.35;12.48;;;23.10;99.90;;;;;;4264223;27;20073;-75
2021/07/26 10:27:23;;;;;;;18.15;12.40;;;23.20;99.90;;;;;;4263728;27;20507;-74
2021/07/26 10:29:53;;;;;;;16.88;12.68;;;23.30;99.90;;;;;;4263615;27;20051;-76
2021/07/26 10:31:56;;;;;;;14.52;12.65;;;23.40;99.90;;;;;;4264061;27;20050;-74
2021/07/26 10:34:03;;;;;;;19.88;13.52;;;23.50;99.90;;;;;;4264184;27;20054;-75
2021/07/26 10:36:06;;;;;;;17.85;12.52;;;23.50;99.90;;;;;;4264263;27;20078;-75